sensor_id;sensor_type;location;lat;lon;timestamp;temperature;humidity
67027;DHT22;53933;52.142;11.738;2022-10-17T00:00:06;23.80;66.00
67027;DHT22;53933;52.142;11.738;2022-10-17T00:02:34;23.80;66.00
67027;DHT22;53933;52.142;11.738;2022-10-17T00:05:01;23.80;66.00
67027;DHT22;53933;52.142;11.738;2022-10-17T00:07:29;23.80;66.00
67027;DHT22;53933;52.142;11.738;2022-10-17T00:09:56;23.80;66.00
67027;DHT22;53933;52.142;11.738;2022-10-17T00:12:23;23.80;66.00
67027;DHT22;53933;52.142;11.738;2022-10-17T00:14:49;23.80;66.00
67027;DHT22;53933;52.142;11.738;2022-10-17T00:17:16;23.80;66.00
67027;DHT22;53933;52.142;11.738;2022-10-17T00:19:44;23.80;66.00
67027;DHT22;53933;52.142;11.738;2022-10-17T00:22:12;23.80;66.00
67027;DHT22;53933;52.142;11.738;2022-10-17T00:24:38;23.80;65.90
67027;DHT22;53933;52.142;11.738;2022-10-17T00:27:05;23.80;65.90
67027;DHT22;53933;52.142;11.738;2022-10-17T00:29:32;23.80;65.90
67027;DHT22;53933;52.142;11.738;2022-10-17T00:31:59;23.80;65.90
67027;DHT22;53933;52.142;11.738;2022-10-17T00:34:28;23.80;65.90
67027;DHT22;53933;52.142;11.738;2022-10-17T00:36:56;23.80;66.00
67027;DHT22;53933;52.142;11.738;2022-10-17T00:39:23;23.80;65.90
67027;DHT22;53933;52.142;11.738;2022-10-17T00:41:50;23.80;65.80
67027;DHT22;53933;52.142;11.738;2022-10-17T00:47:19;23.80;65.80
67027;DHT22;53933;52.142;11.738;2022-10-17T00:49:47;23.80;65.80
67027;DHT22;53933;52.142;11.738;2022-10-17T00:52:18;23.80;65.80
67027;DHT22;53933;52.142;11.738;2022-10-17T00:54:48;23.80;65.70
67027;DHT22;53933;52.142;11.738;2022-10-17T00:57:17;23.80;65.80
67027;DHT22;53933;52.142;11.738;2022-10-17T00:59:47;23.80;65.80
67027;DHT22;53933;52.142;11.738;2022-10-17T01:02:18;23.80;65.70
67027;DHT22;53933;52.142;11.738;2022-10-17T01:04:47;23.80;65.70
67027;DHT22;53933;52.142;11.738;2022-10-17T01:07:17;23.80;66.60
67027;DHT22;53933;52.142;11.738;2022-10-17T01:09:45;23.80;65.70
67027;DHT22;53933;52.142;11.738;2022-10-17T01:12:17;23.80;65.70
67027;DHT22;53933;52.142;11.738;2022-10-17T01:14:53;23.80;65.70
67027;DHT22;53933;52.142;11.738;2022-10-17T01:17:28;23.80;65.70
67027;DHT22;53933;52.142;11.738;2022-10-17T01:20:22;23.80;65.70
67027;DHT22;53933;52.142;11.738;2022-10-17T01:23:09;23.80;65.70
67027;DHT22;53933;52.142;11.738;2022-10-17T01:25:52;23.80;65.70
67027;DHT22;53933;52.142;11.738;2022-10-17T01:28:36;23.80;65.70
67027;DHT22;53933;52.142;11.738;2022-10-17T01:31:10;23.80;65.70
67027;DHT22;53933;52.142;11.738;2022-10-17T01:33:54;23.80;65.80
67027;DHT22;53933;52.142;11.738;2022-10-17T01:36:42;23.80;65.80
67027;DHT22;53933;52.142;11.738;2022-10-17T01:39:15;23.80;65.70
67027;DHT22;53933;52.142;11.738;2022-10-17T01:41:45;23.80;65.70
67027;DHT22;53933;52.142;11.738;2022-10-17T01:44:17;23.80;65.70
67027;DHT22;53933;52.142;11.738;2022-10-17T01:46:49;23.80;65.80
67027;DHT22;53933;52.142;11.738;2022-10-17T01:49:19;23.80;65.80
67027;DHT22;53933;52.142;11.738;2022-10-17T01:51:50;23.80;65.80
67027;DHT22;53933;52.142;11.738;2022-10-17T01:54:21;23.80;65.80
67027;DHT22;53933;52.142;11.738;2022-10-17T01:56:52;23.80;65.70
67027;DHT22;53933;52.142;11.738;2022-10-17T01:59:22;23.80;65.70
67027;DHT22;53933;52.142;11.738;2022-10-17T02:01:53;23.80;65.80
67027;DHT22;53933;52.142;11.738;2022-10-17T02:04:21;23.80;65.80
67027;DHT22;53933;52.142;11.738;2022-10-17T02:06:48;23.80;65.80
67027;DHT22;53933;52.142;11.738;2022-10-17T02:09:16;23.80;65.80
67027;DHT22;53933;52.142;11.738;2022-10-17T02:11:51;23.80;65.80
67027;DHT22;53933;52.142;11.738;2022-10-17T02:14:32;23.80;65.80
67027;DHT22;53933;52.142;11.738;2022-10-17T02:17:13;23.80;65.80
67027;DHT22;53933;52.142;11.738;2022-10-17T02:19:52;23.80;65.80
67027;DHT22;53933;52.142;11.738;2022-10-17T02:22:28;23.80;65.80
67027;DHT22;53933;52.142;11.738;2022-10-17T02:25:08;23.80;65.90
67027;DHT22;53933;52.142;11.738;2022-10-17T02:27:42;23.80;65.80
67027;DHT22;53933;52.142;11.738;2022-10-17T02:30:18;23.80;65.80
67027;DHT22;53933;52.142;11.738;2022-10-17T02:32:53;23.80;65.80
67027;DHT22;53933;52.142;11.738;2022-10-17T02:35:21;23.80;65.80
67027;DHT22;53933;52.142;11.738;2022-10-17T02:37:50;23.80;65.80
67027;DHT22;53933;52.142;11.738;2022-10-17T02:40:20;23.70;65.70
67027;DHT22;53933;52.142;11.738;2022-10-17T02:42:48;23.80;65.80
67027;DHT22;53933;52.142;11.738;2022-10-17T02:45:17;23.80;65.80
67027;DHT22;53933;52.142;11.738;2022-10-17T02:47:53;23.70;65.70
67027;DHT22;53933;52.142;11.738;2022-10-17T02:50:26;23.70;65.70
67027;DHT22;53933;52.142;11.738;2022-10-17T02:52:56;23.80;65.70
67027;DHT22;53933;52.142;11.738;2022-10-17T02:55:30;23.80;65.70
67027;DHT22;53933;52.142;11.738;2022-10-17T02:58:00;23.80;65.70
67027;DHT22;53933;52.142;11.738;2022-10-17T03:00:29;23.70;65.70
67027;DHT22;53933;52.142;11.738;2022-10-17T03:02:57;23.70;65.70
67027;DHT22;53933;52.142;11.738;2022-10-17T03:05:27;23.70;65.60
67027;DHT22;53933;52.142;11.738;2022-10-17T03:07:54;23.70;65.70
67027;DHT22;53933;52.142;11.738;2022-10-17T03:10:21;23.80;65.70
67027;DHT22;53933;52.142;11.738;2022-10-17T03:12:48;23.80;65.70
67027;DHT22;53933;52.142;11.738;2022-10-17T03:15:15;23.70;65.60
67027;DHT22;53933;52.142;11.738;2022-10-17T03:17:42;23.70;65.60
67027;DHT22;53933;52.142;11.738;2022-10-17T03:20:10;23.70;65.60
67027;DHT22;53933;52.142;11.738;2022-10-17T03:22:37;23.70;65.60
67027;DHT22;53933;52.142;11.738;2022-10-17T03:25:04;23.70;65.60
67027;DHT22;53933;52.142;11.738;2022-10-17T03:27:31;23.70;65.60
67027;DHT22;53933;52.142;11.738;2022-10-17T03:29:57;23.70;65.60
67027;DHT22;53933;52.142;11.738;2022-10-17T03:32:24;23.70;65.60
67027;DHT22;53933;52.142;11.738;2022-10-17T03:34:51;23.70;66.50
67027;DHT22;53933;52.142;11.738;2022-10-17T03:37:19;23.70;65.50
67027;DHT22;53933;52.142;11.738;2022-10-17T03:39:45;23.70;65.60
67027;DHT22;53933;52.142;11.738;2022-10-17T03:42:12;23.70;65.60
67027;DHT22;53933;52.142;11.738;2022-10-17T03:44:39;23.70;65.60
67027;DHT22;53933;52.142;11.738;2022-10-17T03:47:05;23.70;65.60
67027;DHT22;53933;52.142;11.738;2022-10-17T03:49:32;23.70;65.60
67027;DHT22;53933;52.142;11.738;2022-10-17T03:51:59;23.70;65.60
67027;DHT22;53933;52.142;11.738;2022-10-17T03:54:27;23.70;65.60
67027;DHT22;53933;52.142;11.738;2022-10-17T03:56:54;23.70;65.60
67027;DHT22;53933;52.142;11.738;2022-10-17T03:59:20;23.70;65.60
67027;DHT22;53933;52.142;11.738;2022-10-17T04:01:47;23.70;65.80
67027;DHT22;53933;52.142;11.738;2022-10-17T04:04:14;23.70;65.60
67027;DHT22;53933;52.142;11.738;2022-10-17T04:06:41;23.70;65.60
67027;DHT22;53933;52.142;11.738;2022-10-17T04:09:08;23.70;65.60
67027;DHT22;53933;52.142;11.738;2022-10-17T04:11:37;23.70;65.50
67027;DHT22;53933;52.142;11.738;2022-10-17T04:14:03;23.70;65.50
67027;DHT22;53933;52.142;11.738;2022-10-17T04:16:30;23.70;65.70
67027;DHT22;53933;52.142;11.738;2022-10-17T04:18:58;23.70;65.60
67027;DHT22;53933;52.142;11.738;2022-10-17T04:21:26;23.70;65.70
67027;DHT22;53933;52.142;11.738;2022-10-17T04:23:53;23.70;66.50
67027;DHT22;53933;52.142;11.738;2022-10-17T04:26:20;23.70;65.60
67027;DHT22;53933;52.142;11.738;2022-10-17T04:28:48;23.70;65.70
67027;DHT22;53933;52.142;11.738;2022-10-17T04:31:15;23.70;65.60
67027;DHT22;53933;52.142;11.738;2022-10-17T04:33:42;23.70;65.60
67027;DHT22;53933;52.142;11.738;2022-10-17T04:36:13;23.70;65.60
67027;DHT22;53933;52.142;11.738;2022-10-17T04:38:40;23.70;65.60
67027;DHT22;53933;52.142;11.738;2022-10-17T04:41:10;23.70;65.70
67027;DHT22;53933;52.142;11.738;2022-10-17T04:43:37;23.70;65.70
67027;DHT22;53933;52.142;11.738;2022-10-17T04:46:08;23.70;65.70
67027;DHT22;53933;52.142;11.738;2022-10-17T04:48:36;23.70;65.60
67027;DHT22;53933;52.142;11.738;2022-10-17T04:51:05;23.70;65.60
67027;DHT22;53933;52.142;11.738;2022-10-17T04:53:33;23.70;65.60
67027;DHT22;53933;52.142;11.738;2022-10-17T04:56:00;23.70;65.70
67027;DHT22;53933;52.142;11.738;2022-10-17T04:58:27;23.70;65.60
67027;DHT22;53933;52.142;11.738;2022-10-17T05:00:54;23.70;65.70
67027;DHT22;53933;52.142;11.738;2022-10-17T05:03:23;23.70;65.60
67027;DHT22;53933;52.142;11.738;2022-10-17T05:05:49;23.70;65.60
67027;DHT22;53933;52.142;11.738;2022-10-17T05:08:16;23.70;65.60
67027;DHT22;53933;52.142;11.738;2022-10-17T05:10:43;23.70;65.60
67027;DHT22;53933;52.142;11.738;2022-10-17T05:13:11;23.70;65.70
67027;DHT22;53933;52.142;11.738;2022-10-17T05:15:39;23.70;65.60
67027;DHT22;53933;52.142;11.738;2022-10-17T05:18:06;23.70;65.70
67027;DHT22;53933;52.142;11.738;2022-10-17T05:20:34;23.70;65.70
67027;DHT22;53933;52.142;11.738;2022-10-17T05:23:01;23.70;65.60
67027;DHT22;53933;52.142;11.738;2022-10-17T05:25:28;23.70;65.60
67027;DHT22;53933;52.142;11.738;2022-10-17T05:27:54;23.70;65.60
67027;DHT22;53933;52.142;11.738;2022-10-17T05:30:21;23.70;65.70
67027;DHT22;53933;52.142;11.738;2022-10-17T05:32:51;23.60;65.50
67027;DHT22;53933;52.142;11.738;2022-10-17T05:35:18;23.70;65.60
67027;DHT22;53933;52.142;11.738;2022-10-17T05:37:47;23.70;65.60
67027;DHT22;53933;52.142;11.738;2022-10-17T05:40:14;23.70;65.60
67027;DHT22;53933;52.142;11.738;2022-10-17T05:42:45;23.70;65.70
67027;DHT22;53933;52.142;11.738;2022-10-17T05:45:12;23.70;65.50
67027;DHT22;53933;52.142;11.738;2022-10-17T05:47:38;23.70;65.50
67027;DHT22;53933;52.142;11.738;2022-10-17T05:50:06;23.70;65.60
67027;DHT22;53933;52.142;11.738;2022-10-17T05:52:33;23.60;65.50
67027;DHT22;53933;52.142;11.738;2022-10-17T05:55:01;23.70;65.50
67027;DHT22;53933;52.142;11.738;2022-10-17T05:57:28;23.70;65.50
67027;DHT22;53933;52.142;11.738;2022-10-17T05:59:55;23.70;65.50
67027;DHT22;53933;52.142;11.738;2022-10-17T06:02:21;23.70;65.50
67027;DHT22;53933;52.142;11.738;2022-10-17T06:04:48;23.70;65.50
67027;DHT22;53933;52.142;11.738;2022-10-17T06:07:15;23.70;65.50
67027;DHT22;53933;52.142;11.738;2022-10-17T06:09:42;23.70;65.40
67027;DHT22;53933;52.142;11.738;2022-10-17T06:12:10;23.70;65.40
67027;DHT22;53933;52.142;11.738;2022-10-17T06:14:37;23.70;65.40
67027;DHT22;53933;52.142;11.738;2022-10-17T06:17:04;23.70;65.40
67027;DHT22;53933;52.142;11.738;2022-10-17T06:19:30;23.70;65.40
67027;DHT22;53933;52.142;11.738;2022-10-17T06:21:57;23.70;65.40
67027;DHT22;53933;52.142;11.738;2022-10-17T06:24:24;23.70;65.40
67027;DHT22;53933;52.142;11.738;2022-10-17T06:26:50;23.70;65.40
67027;DHT22;53933;52.142;11.738;2022-10-17T06:29:18;23.70;65.30
67027;DHT22;53933;52.142;11.738;2022-10-17T06:31:45;23.80;65.40
67027;DHT22;53933;52.142;11.738;2022-10-17T06:34:12;23.80;65.20
67027;DHT22;53933;52.142;11.738;2022-10-17T06:36:39;23.90;65.10
67027;DHT22;53933;52.142;11.738;2022-10-17T06:39:05;23.90;65.00
67027;DHT22;53933;52.142;11.738;2022-10-17T06:41:32;23.90;64.80
67027;DHT22;53933;52.142;11.738;2022-10-17T06:43:59;24.00;64.70
67027;DHT22;53933;52.142;11.738;2022-10-17T06:46:27;24.00;64.60
67027;DHT22;53933;52.142;11.738;2022-10-17T06:48:54;24.00;64.50
67027;DHT22;53933;52.142;11.738;2022-10-17T06:51:21;24.10;64.40
67027;DHT22;53933;52.142;11.738;2022-10-17T06:53:47;24.20;64.20
67027;DHT22;53933;52.142;11.738;2022-10-17T06:56:14;24.20;64.10
67027;DHT22;53933;52.142;11.738;2022-10-17T06:58:41;24.20;63.90
67027;DHT22;53933;52.142;11.738;2022-10-17T07:01:09;24.30;63.80
67027;DHT22;53933;52.142;11.738;2022-10-17T07:03:38;24.40;63.60
67027;DHT22;53933;52.142;11.738;2022-10-17T07:06:06;24.40;63.50
67027;DHT22;53933;52.142;11.738;2022-10-17T07:08:33;24.40;63.30
67027;DHT22;53933;52.142;11.738;2022-10-17T07:11:07;24.50;63.30
67027;DHT22;53933;52.142;11.738;2022-10-17T07:13:34;24.50;63.10
67027;DHT22;53933;52.142;11.738;2022-10-17T07:16:01;24.50;63.00
67027;DHT22;53933;52.142;11.738;2022-10-17T07:18:28;24.50;63.10
67027;DHT22;53933;52.142;11.738;2022-10-17T07:20:56;24.50;63.00
67027;DHT22;53933;52.142;11.738;2022-10-17T07:23:22;24.50;63.90
67027;DHT22;53933;52.142;11.738;2022-10-17T07:25:49;24.50;62.90
67027;DHT22;53933;52.142;11.738;2022-10-17T07:28:16;24.60;62.80
67027;DHT22;53933;52.142;11.738;2022-10-17T07:30:43;24.70;62.70
67027;DHT22;53933;52.142;11.738;2022-10-17T07:33:10;24.70;62.60
67027;DHT22;53933;52.142;11.738;2022-10-17T07:35:37;24.70;62.40
67027;DHT22;53933;52.142;11.738;2022-10-17T07:38:07;24.80;62.30
67027;DHT22;53933;52.142;11.738;2022-10-17T07:40:33;24.80;62.10
67027;DHT22;53933;52.142;11.738;2022-10-17T07:43:00;24.90;62.00
67027;DHT22;53933;52.142;11.738;2022-10-17T07:45:27;25.00;61.90
67027;DHT22;53933;52.142;11.738;2022-10-17T07:47:55;25.00;61.60
67027;DHT22;53933;52.142;11.738;2022-10-17T07:50:22;25.10;61.40
67027;DHT22;53933;52.142;11.738;2022-10-17T07:52:49;25.20;61.10
67027;DHT22;53933;52.142;11.738;2022-10-17T07:55:17;25.30;61.00
67027;DHT22;53933;52.142;11.738;2022-10-17T07:57:44;25.40;60.70
67027;DHT22;53933;52.142;11.738;2022-10-17T08:00:11;25.40;60.40
67027;DHT22;53933;52.142;11.738;2022-10-17T08:02:38;25.50;60.20
67027;DHT22;53933;52.142;11.738;2022-10-17T08:05:05;25.60;60.00
67027;DHT22;53933;52.142;11.738;2022-10-17T08:07:32;25.70;59.90
67027;DHT22;53933;52.142;11.738;2022-10-17T08:09:59;25.70;59.60
67027;DHT22;53933;52.142;11.738;2022-10-17T08:12:27;25.80;59.50
67027;DHT22;53933;52.142;11.738;2022-10-17T08:14:56;25.90;59.40
67027;DHT22;53933;52.142;11.738;2022-10-17T08:17:24;26.00;59.20
67027;DHT22;53933;52.142;11.738;2022-10-17T08:19:50;26.00;59.00
67027;DHT22;53933;52.142;11.738;2022-10-17T08:22:17;26.10;58.80
67027;DHT22;53933;52.142;11.738;2022-10-17T08:24:44;26.20;58.80
67027;DHT22;53933;52.142;11.738;2022-10-17T08:27:11;26.20;58.70
67027;DHT22;53933;52.142;11.738;2022-10-17T08:29:39;26.10;58.70
67027;DHT22;53933;52.142;11.738;2022-10-17T08:32:06;26.20;58.70
67027;DHT22;53933;52.142;11.738;2022-10-17T08:34:34;26.30;58.70
67027;DHT22;53933;52.142;11.738;2022-10-17T08:37:01;26.30;58.50
67027;DHT22;53933;52.142;11.738;2022-10-17T08:39:28;26.20;58.60
67027;DHT22;53933;52.142;11.738;2022-10-17T08:42:04;26.20;58.70
67027;DHT22;53933;52.142;11.738;2022-10-17T08:44:44;26.30;58.70
67027;DHT22;53933;52.142;11.738;2022-10-17T08:47:19;26.50;58.30
67027;DHT22;53933;52.142;11.738;2022-10-17T08:49:51;26.70;57.80
67027;DHT22;53933;52.142;11.738;2022-10-17T08:52:27;26.80;57.50
67027;DHT22;53933;52.142;11.738;2022-10-17T08:54:55;27.00;57.20
67027;DHT22;53933;52.142;11.738;2022-10-17T08:57:24;27.10;56.90
67027;DHT22;53933;52.142;11.738;2022-10-17T08:59:53;27.20;56.70
67027;DHT22;53933;52.142;11.738;2022-10-17T09:02:34;27.30;56.60
67027;DHT22;53933;52.142;11.738;2022-10-17T09:05:20;27.30;56.30
67027;DHT22;53933;52.142;11.738;2022-10-17T09:07:55;27.50;56.10
67027;DHT22;53933;52.142;11.738;2022-10-17T09:10:33;27.60;56.00
67027;DHT22;53933;52.142;11.738;2022-10-17T09:13:09;27.40;55.90
67027;DHT22;53933;52.142;11.738;2022-10-17T09:15:57;27.20;56.40
67027;DHT22;53933;52.142;11.738;2022-10-17T09:18:28;26.90;57.00
67027;DHT22;53933;52.142;11.738;2022-10-17T09:21:00;26.90;57.20
67027;DHT22;53933;52.142;11.738;2022-10-17T09:23:30;27.00;57.10
67027;DHT22;53933;52.142;11.738;2022-10-17T09:25:59;27.20;56.70
67027;DHT22;53933;52.142;11.738;2022-10-17T09:28:29;27.20;56.60
67027;DHT22;53933;52.142;11.738;2022-10-17T09:31:00;27.20;56.50
67027;DHT22;53933;52.142;11.738;2022-10-17T09:33:30;27.40;56.40
67027;DHT22;53933;52.142;11.738;2022-10-17T09:35:59;27.40;56.20
67027;DHT22;53933;52.142;11.738;2022-10-17T09:38:35;27.40;56.20
67027;DHT22;53933;52.142;11.738;2022-10-17T09:41:03;27.50;56.20
67027;DHT22;53933;52.142;11.738;2022-10-17T09:43:32;27.70;55.80
67027;DHT22;53933;52.142;11.738;2022-10-17T09:46:06;27.90;55.30
67027;DHT22;53933;52.142;11.738;2022-10-17T09:48:37;28.00;54.90
67027;DHT22;53933;52.142;11.738;2022-10-17T09:51:06;28.00;54.90
67027;DHT22;53933;52.142;11.738;2022-10-17T09:53:35;28.10;54.90
67027;DHT22;53933;52.142;11.738;2022-10-17T09:56:07;28.10;54.80
67027;DHT22;53933;52.142;11.738;2022-10-17T09:58:41;28.10;54.80
67027;DHT22;53933;52.142;11.738;2022-10-17T10:01:17;28.00;54.90
67027;DHT22;53933;52.142;11.738;2022-10-17T10:03:45;28.00;55.00
67027;DHT22;53933;52.142;11.738;2022-10-17T10:06:15;28.00;55.00
67027;DHT22;53933;52.142;11.738;2022-10-17T10:08:50;27.90;55.00
67027;DHT22;53933;52.142;11.738;2022-10-17T10:11:18;27.90;55.10
67027;DHT22;53933;52.142;11.738;2022-10-17T10:13:48;27.80;55.20
67027;DHT22;53933;52.142;11.738;2022-10-17T10:16:22;27.80;55.50
67027;DHT22;53933;52.142;11.738;2022-10-17T10:18:53;27.70;55.60
67027;DHT22;53933;52.142;11.738;2022-10-17T10:21:21;27.60;55.70
67027;DHT22;53933;52.142;11.738;2022-10-17T10:24:04;27.60;56.00
67027;DHT22;53933;52.142;11.738;2022-10-17T10:26:34;27.40;56.10
67027;DHT22;53933;52.142;11.738;2022-10-17T10:29:05;27.30;56.40
67027;DHT22;53933;52.142;11.738;2022-10-17T10:31:37;27.30;56.50
67027;DHT22;53933;52.142;11.738;2022-10-17T10:34:15;27.20;56.60
67027;DHT22;53933;52.142;11.738;2022-10-17T10:36:48;27.10;56.80
67027;DHT22;53933;52.142;11.738;2022-10-17T10:39:25;27.00;57.00
67027;DHT22;53933;52.142;11.738;2022-10-17T10:41:52;26.90;57.40
67027;DHT22;53933;52.142;11.738;2022-10-17T10:44:23;26.70;57.60
67027;DHT22;53933;52.142;11.738;2022-10-17T10:47:15;26.70;57.80
67027;DHT22;53933;52.142;11.738;2022-10-17T10:49:43;26.60;58.00
67027;DHT22;53933;52.142;11.738;2022-10-17T10:52:15;26.50;58.80
67027;DHT22;53933;52.142;11.738;2022-10-17T10:54:52;26.50;58.30
67027;DHT22;53933;52.142;11.738;2022-10-17T10:57:20;26.40;58.50
67027;DHT22;53933;52.142;11.738;2022-10-17T10:59:55;26.40;58.60
67027;DHT22;53933;52.142;11.738;2022-10-17T11:02:32;26.30;58.80
67027;DHT22;53933;52.142;11.738;2022-10-17T11:05:02;26.20;58.80
67027;DHT22;53933;52.142;11.738;2022-10-17T11:07:32;26.20;59.00
67027;DHT22;53933;52.142;11.738;2022-10-17T11:10:06;26.20;59.10
67027;DHT22;53933;52.142;11.738;2022-10-17T11:12:38;26.20;59.10
67027;DHT22;53933;52.142;11.738;2022-10-17T11:15:15;26.10;59.10
67027;DHT22;53933;52.142;11.738;2022-10-17T11:17:51;26.10;59.30
67027;DHT22;53933;52.142;11.738;2022-10-17T11:20:28;26.10;59.40
67027;DHT22;53933;52.142;11.738;2022-10-17T11:23:02;26.00;59.40
67027;DHT22;53933;52.142;11.738;2022-10-17T11:25:32;26.00;59.50
67027;DHT22;53933;52.142;11.738;2022-10-17T11:28:00;25.90;59.60
67027;DHT22;53933;52.142;11.738;2022-10-17T11:30:31;25.90;59.70
67027;DHT22;53933;52.142;11.738;2022-10-17T11:33:02;25.80;59.80
67027;DHT22;53933;52.142;11.738;2022-10-17T11:35:33;25.80;59.90
67027;DHT22;53933;52.142;11.738;2022-10-17T11:38:06;25.80;60.00
67027;DHT22;53933;52.142;11.738;2022-10-17T11:40:37;25.80;60.20
67027;DHT22;53933;52.142;11.738;2022-10-17T11:43:10;25.80;60.20
67027;DHT22;53933;52.142;11.738;2022-10-17T11:45:42;25.70;60.20
67027;DHT22;53933;52.142;11.738;2022-10-17T11:48:12;25.70;60.30
67027;DHT22;53933;52.142;11.738;2022-10-17T11:50:45;25.70;60.30
67027;DHT22;53933;52.142;11.738;2022-10-17T11:53:15;25.70;60.40
67027;DHT22;53933;52.142;11.738;2022-10-17T11:55:42;25.70;60.40
67027;DHT22;53933;52.142;11.738;2022-10-17T11:58:22;25.60;60.40
67027;DHT22;53933;52.142;11.738;2022-10-17T12:00:56;25.60;60.50
67027;DHT22;53933;52.142;11.738;2022-10-17T12:03:33;25.60;60.50
67027;DHT22;53933;52.142;11.738;2022-10-17T12:06:11;25.60;60.70
67027;DHT22;53933;52.142;11.738;2022-10-17T12:08:43;25.50;60.70
67027;DHT22;53933;52.142;11.738;2022-10-17T12:11:19;25.50;60.80
67027;DHT22;53933;52.142;11.738;2022-10-17T12:13:53;25.50;60.90
67027;DHT22;53933;52.142;11.738;2022-10-17T12:16:43;25.50;61.00
67027;DHT22;53933;52.142;11.738;2022-10-17T12:19:30;25.50;61.00
67027;DHT22;53933;52.142;11.738;2022-10-17T12:22:20;25.50;61.10
67027;DHT22;53933;52.142;11.738;2022-10-17T12:24:55;25.40;61.10
67027;DHT22;53933;52.142;11.738;2022-10-17T12:27:37;25.40;61.20
67027;DHT22;53933;52.142;11.738;2022-10-17T12:30:16;25.40;62.20
67027;DHT22;53933;52.142;11.738;2022-10-17T12:33:00;25.40;61.30
67027;DHT22;53933;52.142;11.738;2022-10-17T12:35:29;25.40;61.40
67027;DHT22;53933;52.142;11.738;2022-10-17T12:38:23;25.40;61.40
67027;DHT22;53933;52.142;11.738;2022-10-17T12:40:52;25.40;61.50
67027;DHT22;53933;52.142;11.738;2022-10-17T12:43:44;25.40;61.50
67027;DHT22;53933;52.142;11.738;2022-10-17T12:46:11;25.30;61.40
67027;DHT22;53933;52.142;11.738;2022-10-17T12:49:01;25.40;61.50
67027;DHT22;53933;52.142;11.738;2022-10-17T12:54:38;25.30;61.60
67027;DHT22;53933;52.142;11.738;2022-10-17T12:57:13;25.30;61.60
67027;DHT22;53933;52.142;11.738;2022-10-17T12:59:42;25.30;61.60
67027;DHT22;53933;52.142;11.738;2022-10-17T13:02:18;25.30;61.60
67027;DHT22;53933;52.142;11.738;2022-10-17T13:04:46;25.30;61.60
67027;DHT22;53933;52.142;11.738;2022-10-17T13:07:18;25.30;61.70
67027;DHT22;53933;52.142;11.738;2022-10-17T13:09:46;25.20;61.60
67027;DHT22;53933;52.142;11.738;2022-10-17T13:12:17;25.30;61.70
67027;DHT22;53933;52.142;11.738;2022-10-17T13:14:45;25.20;61.70
67027;DHT22;53933;52.142;11.738;2022-10-17T13:17:21;25.20;61.60
67027;DHT22;53933;52.142;11.738;2022-10-17T13:19:48;25.30;61.80
67027;DHT22;53933;52.142;11.738;2022-10-17T13:22:19;25.30;61.80
67027;DHT22;53933;52.142;11.738;2022-10-17T13:24:47;25.30;61.80
67027;DHT22;53933;52.142;11.738;2022-10-17T13:27:23;25.30;61.80
67027;DHT22;53933;52.142;11.738;2022-10-17T13:29:50;25.20;61.70
67027;DHT22;53933;52.142;11.738;2022-10-17T13:32:17;25.20;61.80
67027;DHT22;53933;52.142;11.738;2022-10-17T13:34:44;25.20;61.80
67027;DHT22;53933;52.142;11.738;2022-10-17T13:37:13;25.20;61.90
67027;DHT22;53933;52.142;11.738;2022-10-17T13:39:44;25.10;62.00
67027;DHT22;53933;52.142;11.738;2022-10-17T13:42:18;25.20;62.20
67027;DHT22;53933;52.142;11.738;2022-10-17T13:44:47;25.10;62.10
67027;DHT22;53933;52.142;11.738;2022-10-17T13:47:22;25.10;62.10
67027;DHT22;53933;52.142;11.738;2022-10-17T13:49:49;25.10;62.20
67027;DHT22;53933;52.142;11.738;2022-10-17T13:52:18;25.10;62.20
67027;DHT22;53933;52.142;11.738;2022-10-17T13:54:48;25.10;62.20
67027;DHT22;53933;52.142;11.738;2022-10-17T13:57:18;25.10;62.20
67027;DHT22;53933;52.142;11.738;2022-10-17T13:59:46;25.10;62.20
67027;DHT22;53933;52.142;11.738;2022-10-17T14:02:15;25.10;62.10
67027;DHT22;53933;52.142;11.738;2022-10-17T14:04:42;25.10;62.70
67027;DHT22;53933;52.142;11.738;2022-10-17T14:07:20;25.10;62.10
67027;DHT22;53933;52.142;11.738;2022-10-17T14:09:50;25.10;62.20
67027;DHT22;53933;52.142;11.738;2022-10-17T14:12:18;25.10;62.10
67027;DHT22;53933;52.142;11.738;2022-10-17T14:14:47;25.10;62.20
67027;DHT22;53933;52.142;11.738;2022-10-17T14:17:20;25.10;62.20
67027;DHT22;53933;52.142;11.738;2022-10-17T14:19:51;25.10;62.20
67027;DHT22;53933;52.142;11.738;2022-10-17T14:22:25;25.00;62.20
67027;DHT22;53933;52.142;11.738;2022-10-17T14:24:54;25.00;62.20
67027;DHT22;53933;52.142;11.738;2022-10-17T14:27:27;25.00;62.20
67027;DHT22;53933;52.142;11.738;2022-10-17T14:29:56;25.00;62.30
67027;DHT22;53933;52.142;11.738;2022-10-17T14:32:26;25.00;62.30
67027;DHT22;53933;52.142;11.738;2022-10-17T14:34:54;25.00;62.30
67027;DHT22;53933;52.142;11.738;2022-10-17T14:37:33;25.00;62.30
67027;DHT22;53933;52.142;11.738;2022-10-17T14:40:04;25.00;62.30
67027;DHT22;53933;52.142;11.738;2022-10-17T14:42:38;25.00;62.30
67027;DHT22;53933;52.142;11.738;2022-10-17T14:45:07;25.00;62.30
67027;DHT22;53933;52.142;11.738;2022-10-17T14:47:34;25.00;62.30
67027;DHT22;53933;52.142;11.738;2022-10-17T14:50:05;25.00;62.00
67027;DHT22;53933;52.142;11.738;2022-10-17T14:52:32;25.00;62.00
67027;DHT22;53933;52.142;11.738;2022-10-17T14:55:15;25.00;62.10
67027;DHT22;53933;52.142;11.738;2022-10-17T14:57:44;25.00;62.20
67027;DHT22;53933;52.142;11.738;2022-10-17T15:00:15;25.00;62.30
67027;DHT22;53933;52.142;11.738;2022-10-17T15:02:42;24.90;62.30
67027;DHT22;53933;52.142;11.738;2022-10-17T15:05:09;25.00;62.40
67027;DHT22;53933;52.142;11.738;2022-10-17T15:07:36;25.00;62.40
67027;DHT22;53933;52.142;11.738;2022-10-17T15:10:05;24.90;62.40
67027;DHT22;53933;52.142;11.738;2022-10-17T15:12:32;24.90;62.50
67027;DHT22;53933;52.142;11.738;2022-10-17T15:14:59;24.90;62.50
67027;DHT22;53933;52.142;11.738;2022-10-17T15:17:27;24.90;62.50
67027;DHT22;53933;52.142;11.738;2022-10-17T15:19:55;24.90;62.50
67027;DHT22;53933;52.142;11.738;2022-10-17T15:22:23;24.90;62.60
67027;DHT22;53933;52.142;11.738;2022-10-17T15:24:50;24.90;62.60
67027;DHT22;53933;52.142;11.738;2022-10-17T15:27:23;24.90;62.60
67027;DHT22;53933;52.142;11.738;2022-10-17T15:29:51;24.80;62.60
67027;DHT22;53933;52.142;11.738;2022-10-17T15:32:18;24.80;62.70
67027;DHT22;53933;52.142;11.738;2022-10-17T15:34:45;24.80;62.60
67027;DHT22;53933;52.142;11.738;2022-10-17T15:37:17;24.80;62.70
67027;DHT22;53933;52.142;11.738;2022-10-17T15:39:47;24.80;62.70